BCS6GA EBBR-LIMC
Flight info
| Callsign | BCS6GA |
|---|---|
| Flight time | 1h 20m |
| Altitude | 33000 |
| Route | ROUSY DCT GTQ DCT DEVDI DCT RIPUS DCT GERSA DCT SOSON DCT DEGAD Z424 BASGO/N0472F290 Z424 AKASU/N0429F190 Z424 RIXUV |
| Aircraft | A306/H-SDE3FGHIRWY/LB1 |
Departure
| Time | 2026-05-04 14:42 |
|---|---|
| Airport | Brussels Airport (EBBR) |
Arrival
| Time | 2026-05-04 16:03 |
|---|---|
| Airport | Milan Malpensa International Airport (LIMC) |
| Time | Latitude | Longitude | Altitude | Speed | Heading |
|---|---|---|---|---|---|
| 2026-05-04 14:03 | 50.90320 | 4.45913 | 143 ft | 0 kts | 335° |
| 2026-05-04 14:30 | 50.90297 | 4.45929 | 143 ft | 4 kts | 337° |
| 2026-05-04 14:30 | 50.90247 | 4.45953 | 143 ft | 4 kts | 6° |
| 2026-05-04 14:31 | 50.90229 | 4.45941 | 143 ft | 2 kts | 65° |
| 2026-05-04 14:31 | 50.90229 | 4.45940 | 143 ft | 0 kts | 65° |
| 2026-05-04 14:34 | 50.90232 | 4.45951 | 143 ft | 5 kts | 65° |
| 2026-05-04 14:34 | 50.90251 | 4.46015 | 143 ft | 6 kts | 65° |
| 2026-05-04 14:34 | 50.90270 | 4.46079 | 142 ft | 6 kts | 66° |
| 2026-05-04 14:35 | 50.90288 | 4.46145 | 141 ft | 8 kts | 66° |
| 2026-05-04 14:35 | 50.90317 | 4.46247 | 140 ft | 10 kts | 65° |
| 2026-05-04 14:35 | 50.90347 | 4.46349 | 139 ft | 10 kts | 65° |
| 2026-05-04 14:35 | 50.90364 | 4.46466 | 137 ft | 13 kts | 92° |
| 2026-05-04 14:36 | 50.90334 | 4.46588 | 136 ft | 12 kts | 116° |
| 2026-05-04 14:36 | 50.90299 | 4.46700 | 133 ft | 11 kts | 116° |
| 2026-05-04 14:36 | 50.90263 | 4.46817 | 130 ft | 13 kts | 116° |
| 2026-05-04 14:36 | 50.90212 | 4.46982 | 125 ft | 19 kts | 116° |
| 2026-05-04 14:37 | 50.90173 | 4.47162 | 130 ft | 17 kts | 85° |
| 2026-05-04 14:37 | 50.90217 | 4.47327 | 126 ft | 16 kts | 64° |
| 2026-05-04 14:37 | 50.90266 | 4.47486 | 123 ft | 16 kts | 65° |
| 2026-05-04 14:37 | 50.90310 | 4.47635 | 122 ft | 14 kts | 66° |
| 2026-05-04 14:38 | 50.90351 | 4.47787 | 123 ft | 19 kts | 66° |
| 2026-05-04 14:38 | 50.90411 | 4.47993 | 122 ft | 20 kts | 66° |
| 2026-05-04 14:38 | 50.90465 | 4.48179 | 125 ft | 18 kts | 65° |
| 2026-05-04 14:38 | 50.90515 | 4.48351 | 123 ft | 16 kts | 64° |
| 2026-05-04 14:39 | 50.90565 | 4.48522 | 123 ft | 20 kts | 65° |
| 2026-05-04 14:39 | 50.90629 | 4.48744 | 121 ft | 23 kts | 65° |
| 2026-05-04 14:39 | 50.90691 | 4.48963 | 124 ft | 21 kts | 65° |
| 2026-05-04 14:40 | 50.90796 | 4.49324 | 126 ft | 16 kts | 66° |
| 2026-05-04 14:40 | 50.90838 | 4.49470 | 127 ft | 14 kts | 65° |
| 2026-05-04 14:40 | 50.90885 | 4.49634 | 125 ft | 18 kts | 65° |
| 2026-05-04 14:40 | 50.90938 | 4.49799 | 125 ft | 16 kts | 52° |
| 2026-05-04 14:41 | 50.91023 | 4.49905 | 124 ft | 16 kts | 26° |
| 2026-05-04 14:41 | 50.91119 | 4.49943 | 121 ft | 13 kts | 339° |
| 2026-05-04 14:41 | 50.91092 | 4.49720 | 124 ft | 22 kts | 245° |
| 2026-05-04 14:42 | 50.90572 | 4.47938 | 124 ft | 152 kts | 245° |
| 2026-05-04 14:42 | 50.90058 | 4.46154 | 331 ft | 197 kts | 246° |
| 2026-05-04 14:42 | 50.89488 | 4.44124 | 1204 ft | 202 kts | 247° |
| 2026-05-04 14:43 | 50.89222 | 4.41969 | 2092 ft | 203 kts | 278° |
| 2026-05-04 14:43 | 50.89800 | 4.39900 | 2617 ft | 211 kts | 303° |
| 2026-05-04 14:43 | 50.90630 | 4.37922 | 3120 ft | 222 kts | 303° |
| 2026-05-04 14:43 | 50.91449 | 4.35715 | 3386 ft | 242 kts | 294° |
| 2026-05-04 14:44 | 50.91604 | 4.33025 | 3780 ft | 255 kts | 255° |
| 2026-05-04 14:44 | 50.90660 | 4.30664 | 4498 ft | 258 kts | 220° |
| 2026-05-04 14:44 | 50.89187 | 4.29038 | 5307 ft | 259 kts | 213° |
| 2026-05-04 14:44 | 50.87709 | 4.27418 | 6076 ft | 263 kts | 216° |
| 2026-05-04 14:45 | 50.86251 | 4.25640 | 6869 ft | 266 kts | 219° |
| 2026-05-04 14:45 | 50.84823 | 4.23762 | 7641 ft | 269 kts | 220° |
| 2026-05-04 14:45 | 50.83291 | 4.22016 | 8410 ft | 272 kts | 207° |
| 2026-05-04 14:45 | 50.81471 | 4.21197 | 9149 ft | 276 kts | 182° |
| 2026-05-04 14:46 | 50.79577 | 4.21676 | 9876 ft | 278 kts | 160° |
| 2026-05-04 14:46 | 50.77785 | 4.22857 | 10610 ft | 281 kts | 155° |
| 2026-05-04 14:46 | 50.76117 | 4.24474 | 11273 ft | 284 kts | 138° |
| 2026-05-04 14:46 | 50.75251 | 4.26029 | 11693 ft | 287 kts | 122° |
| 2026-05-04 14:47 | 50.74481 | 4.29993 | 12563 ft | 290 kts | 92° |
| 2026-05-04 14:47 | 50.74450 | 4.33191 | 13197 ft | 293 kts | 92° |
| 2026-05-04 14:47 | 50.74054 | 4.36348 | 13776 ft | 296 kts | 113° |
| 2026-05-04 14:47 | 50.72903 | 4.39024 | 14367 ft | 298 kts | 134° |
| 2026-05-04 14:48 | 50.71904 | 4.40541 | 14754 ft | 300 kts | 137° |
| 2026-05-04 14:48 | 50.70334 | 4.42737 | 15328 ft | 303 kts | 139° |
| 2026-05-04 14:48 | 50.68742 | 4.44935 | 15870 ft | 305 kts | 139° |
| 2026-05-04 14:48 | 50.67136 | 4.47160 | 16415 ft | 308 kts | 139° |
| 2026-05-04 14:49 | 50.65524 | 4.49408 | 16939 ft | 311 kts | 138° |
| 2026-05-04 14:49 | 50.63908 | 4.51692 | 17463 ft | 313 kts | 138° |
| 2026-05-04 14:49 | 50.62282 | 4.53998 | 17968 ft | 316 kts | 138° |
| 2026-05-04 14:49 | 50.60642 | 4.56324 | 18477 ft | 318 kts | 138° |
| 2026-05-04 14:50 | 50.58990 | 4.58667 | 18948 ft | 321 kts | 138° |
| 2026-05-04 14:50 | 50.57324 | 4.61026 | 19429 ft | 323 kts | 138° |
| 2026-05-04 14:50 | 50.55669 | 4.63369 | 19896 ft | 325 kts | 138° |
| 2026-05-04 14:50 | 50.53977 | 4.65761 | 20342 ft | 328 kts | 138° |
| 2026-05-04 14:51 | 50.52272 | 4.68170 | 20784 ft | 330 kts | 138° |
| 2026-05-04 14:51 | 50.50559 | 4.70587 | 21239 ft | 332 kts | 138° |
| 2026-05-04 14:51 | 50.48834 | 4.73020 | 21672 ft | 335 kts | 138° |
| 2026-05-04 14:51 | 50.47094 | 4.75469 | 22097 ft | 337 kts | 138° |
| 2026-05-04 14:52 | 50.45343 | 4.77933 | 22514 ft | 339 kts | 138° |
| 2026-05-04 14:52 | 50.43583 | 4.80406 | 22925 ft | 341 kts | 138° |
| 2026-05-04 14:52 | 50.41807 | 4.82900 | 23320 ft | 343 kts | 138° |
| 2026-05-04 14:52 | 50.40017 | 4.85410 | 23722 ft | 346 kts | 138° |
| 2026-05-04 14:53 | 50.38237 | 4.87904 | 24095 ft | 348 kts | 138° |
| 2026-05-04 14:53 | 50.36405 | 4.90468 | 24466 ft | 350 kts | 138° |
| 2026-05-04 14:53 | 50.34581 | 4.93018 | 24828 ft | 352 kts | 138° |
| 2026-05-04 14:53 | 50.32773 | 4.95543 | 25180 ft | 354 kts | 138° |
| 2026-05-04 14:54 | 50.30929 | 4.98116 | 25535 ft | 356 kts | 138° |
| 2026-05-04 14:54 | 50.29073 | 5.00701 | 25878 ft | 358 kts | 138° |
| 2026-05-04 14:54 | 50.27208 | 5.03298 | 26223 ft | 360 kts | 138° |
| 2026-05-04 14:54 | 50.25318 | 5.05926 | 26566 ft | 362 kts | 138° |
| 2026-05-04 14:55 | 50.23441 | 5.08533 | 26886 ft | 365 kts | 138° |
| 2026-05-04 14:55 | 50.21534 | 5.11179 | 27174 ft | 368 kts | 138° |
| 2026-05-04 14:55 | 50.19612 | 5.13842 | 27458 ft | 371 kts | 138° |
| 2026-05-04 14:55 | 50.17680 | 5.16516 | 27764 ft | 373 kts | 138° |
| 2026-05-04 14:56 | 50.15727 | 5.19216 | 28050 ft | 376 kts | 138° |
| 2026-05-04 14:56 | 50.13787 | 5.21896 | 28328 ft | 379 kts | 138° |
| 2026-05-04 14:56 | 50.11808 | 5.24626 | 28596 ft | 382 kts | 138° |
| 2026-05-04 14:56 | 50.09811 | 5.27378 | 28860 ft | 385 kts | 138° |
| 2026-05-04 14:57 | 50.07797 | 5.30150 | 29119 ft | 387 kts | 139° |
| 2026-05-04 14:57 | 50.05766 | 5.32942 | 29366 ft | 390 kts | 139° |
| 2026-05-04 14:57 | 50.03717 | 5.35755 | 29599 ft | 393 kts | 139° |
| 2026-05-04 14:57 | 50.01657 | 5.38581 | 29824 ft | 396 kts | 139° |
| 2026-05-04 14:58 | 49.99609 | 5.41386 | 30065 ft | 398 kts | 139° |
| 2026-05-04 14:58 | 49.97525 | 5.44238 | 30288 ft | 401 kts | 139° |
| 2026-05-04 14:58 | 49.95419 | 5.47116 | 30506 ft | 403 kts | 139° |
| 2026-05-04 14:58 | 49.93305 | 5.50002 | 30729 ft | 405 kts | 139° |
| 2026-05-04 14:59 | 49.91177 | 5.52902 | 30930 ft | 408 kts | 139° |
| 2026-05-04 14:59 | 49.89034 | 5.55820 | 31137 ft | 410 kts | 139° |
| 2026-05-04 14:59 | 49.84722 | 5.61680 | 31547 ft | 414 kts | 139° |
| 2026-05-04 15:00 | 49.82544 | 5.64635 | 31744 ft | 416 kts | 139° |
| 2026-05-04 15:00 | 49.80385 | 5.67560 | 31919 ft | 419 kts | 139° |
| 2026-05-04 15:00 | 49.78190 | 5.70531 | 32124 ft | 421 kts | 139° |
| 2026-05-04 15:01 | 49.73750 | 5.76528 | 32489 ft | 424 kts | 139° |
| 2026-05-04 15:01 | 49.71522 | 5.79530 | 32660 ft | 426 kts | 139° |
| 2026-05-04 15:01 | 49.69277 | 5.82553 | 32826 ft | 428 kts | 139° |
| 2026-05-04 15:01 | 49.67033 | 5.85571 | 32958 ft | 430 kts | 139° |
| 2026-05-04 15:02 | 49.62481 | 5.91680 | 33003 ft | 438 kts | 139° |
| 2026-05-04 15:02 | 49.57870 | 5.97853 | 33003 ft | 446 kts | 139° |
| 2026-05-04 15:03 | 49.53145 | 6.04161 | 33002 ft | 453 kts | 139° |
| 2026-05-04 15:03 | 49.48380 | 6.10505 | 33000 ft | 453 kts | 139° |
| 2026-05-04 15:04 | 49.43529 | 6.16696 | 33001 ft | 452 kts | 141° |
| 2026-05-04 15:04 | 49.38618 | 6.22741 | 33001 ft | 452 kts | 141° |
| 2026-05-04 15:05 | 49.33705 | 6.28766 | 33000 ft | 452 kts | 141° |
| 2026-05-04 15:05 | 49.28820 | 6.34770 | 33000 ft | 452 kts | 141° |
| 2026-05-04 15:06 | 49.23912 | 6.40804 | 33001 ft | 452 kts | 141° |
| 2026-05-04 15:07 | 49.16533 | 6.49846 | 33000 ft | 452 kts | 141° |
| 2026-05-04 15:07 | 49.11614 | 6.55854 | 33001 ft | 453 kts | 141° |
| 2026-05-04 15:08 | 49.06710 | 6.61827 | 33001 ft | 453 kts | 141° |
| 2026-05-04 15:08 | 49.01776 | 6.67820 | 33000 ft | 453 kts | 141° |
| 2026-05-04 15:09 | 48.96489 | 6.72996 | 33003 ft | 452 kts | 153° |
| 2026-05-04 15:09 | 48.90789 | 6.77091 | 33000 ft | 452 kts | 155° |
| 2026-05-04 15:10 | 48.82189 | 6.82881 | 33000 ft | 452 kts | 156° |
| 2026-05-04 15:11 | 48.73559 | 6.88698 | 33001 ft | 452 kts | 156° |
| 2026-05-04 15:11 | 48.67810 | 6.92586 | 33000 ft | 452 kts | 156° |
| 2026-05-04 15:12 | 48.62056 | 6.96471 | 33000 ft | 453 kts | 156° |
| 2026-05-04 15:12 | 48.56325 | 7.00329 | 33001 ft | 453 kts | 156° |
| 2026-05-04 15:13 | 48.50558 | 7.04201 | 32999 ft | 454 kts | 156° |
| 2026-05-04 15:13 | 48.44770 | 7.08077 | 33000 ft | 455 kts | 156° |
| 2026-05-04 15:14 | 48.38973 | 7.11950 | 33000 ft | 456 kts | 156° |
| 2026-05-04 15:14 | 48.33167 | 7.15818 | 33000 ft | 455 kts | 156° |
| 2026-05-04 15:15 | 48.27386 | 7.19661 | 33001 ft | 455 kts | 156° |
| 2026-05-04 15:15 | 48.21621 | 7.23483 | 32999 ft | 455 kts | 156° |
| 2026-05-04 15:16 | 48.12931 | 7.29227 | 33002 ft | 455 kts | 156° |
| 2026-05-04 15:17 | 48.04271 | 7.34931 | 33000 ft | 452 kts | 156° |
| 2026-05-04 15:17 | 47.95671 | 7.40573 | 33001 ft | 452 kts | 156° |
| 2026-05-04 15:18 | 47.89900 | 7.44348 | 32999 ft | 452 kts | 156° |
| 2026-05-04 15:19 | 47.81257 | 7.49985 | 32999 ft | 452 kts | 156° |
| 2026-05-04 15:19 | 47.73204 | 7.57048 | 32999 ft | 452 kts | 136° |
| 2026-05-04 15:20 | 47.69126 | 7.64164 | 33001 ft | 452 kts | 127° |
| 2026-05-04 15:20 | 47.65392 | 7.71705 | 33001 ft | 453 kts | 126° |
| 2026-05-04 15:21 | 47.61690 | 7.79290 | 33001 ft | 453 kts | 126° |
| 2026-05-04 15:22 | 47.56112 | 7.90537 | 33000 ft | 453 kts | 126° |
| 2026-05-04 15:22 | 47.50477 | 8.01770 | 33001 ft | 453 kts | 127° |
| 2026-05-04 15:23 | 47.46703 | 8.09266 | 32998 ft | 454 kts | 127° |
| 2026-05-04 15:23 | 47.42926 | 8.16751 | 33001 ft | 454 kts | 127° |
| 2026-05-04 15:24 | 47.35386 | 8.31635 | 33001 ft | 454 kts | 127° |
| 2026-05-04 15:25 | 47.31599 | 8.39079 | 33000 ft | 453 kts | 127° |
| 2026-05-04 15:26 | 47.24594 | 8.48294 | 32999 ft | 454 kts | 152° |
| 2026-05-04 15:26 | 47.15479 | 8.51722 | 33000 ft | 453 kts | 173° |
| 2026-05-04 15:27 | 47.06073 | 8.52991 | 33000 ft | 455 kts | 175° |
| 2026-05-04 15:28 | 46.96586 | 8.54269 | 33001 ft | 456 kts | 174° |
| 2026-05-04 15:29 | 46.87069 | 8.55635 | 32998 ft | 460 kts | 174° |
| 2026-05-04 15:30 | 46.64627 | 8.58851 | 32999 ft | 461 kts | 174° |
| 2026-05-04 15:31 | 46.55026 | 8.60217 | 32599 ft | 465 kts | 174° |
| 2026-05-04 15:32 | 46.45379 | 8.60921 | 30182 ft | 461 kts | 187° |
| 2026-05-04 15:32 | 46.39333 | 8.58009 | 27698 ft | 459 kts | 208° |
| 2026-05-04 15:33 | 46.33929 | 8.53367 | 26225 ft | 445 kts | 212° |
| 2026-05-04 15:34 | 46.25635 | 8.48031 | 24337 ft | 434 kts | 187° |
| 2026-05-04 15:34 | 46.22629 | 8.47882 | 23723 ft | 430 kts | 179° |
| 2026-05-04 15:34 | 46.16739 | 8.48499 | 22482 ft | 423 kts | 174° |
| 2026-05-04 15:35 | 46.10974 | 8.49757 | 21290 ft | 415 kts | 164° |
| 2026-05-04 15:35 | 46.08244 | 8.51005 | 20977 ft | 405 kts | 161° |
| 2026-05-04 15:35 | 46.05633 | 8.52335 | 20869 ft | 391 kts | 160° |
| 2026-05-04 15:36 | 46.01516 | 8.54564 | 20652 ft | 371 kts | 159° |
| 2026-05-04 15:36 | 45.99120 | 8.55884 | 20487 ft | 361 kts | 159° |
| 2026-05-04 15:36 | 45.96060 | 8.57560 | 20273 ft | 349 kts | 159° |
| 2026-05-04 15:37 | 45.94539 | 8.58388 | 20168 ft | 343 kts | 159° |
| 2026-05-04 15:37 | 45.92326 | 8.59586 | 20012 ft | 334 kts | 159° |
| 2026-05-04 15:37 | 45.90236 | 8.60896 | 19643 ft | 333 kts | 149° |
| 2026-05-04 15:37 | 45.88308 | 8.62718 | 19281 ft | 332 kts | 144° |
| 2026-05-04 15:38 | 45.86451 | 8.64693 | 18952 ft | 329 kts | 142° |
| 2026-05-04 15:38 | 45.84666 | 8.66722 | 18650 ft | 326 kts | 141° |
| 2026-05-04 15:38 | 45.82910 | 8.68780 | 18275 ft | 325 kts | 140° |
| 2026-05-04 15:38 | 45.81176 | 8.70830 | 17806 ft | 321 kts | 140° |
| 2026-05-04 15:39 | 45.79452 | 8.72864 | 17203 ft | 319 kts | 140° |
| 2026-05-04 15:39 | 45.77735 | 8.74876 | 16621 ft | 317 kts | 141° |
| 2026-05-04 15:39 | 45.74052 | 8.78239 | 15631 ft | 313 kts | 150° |
| 2026-05-04 15:40 | 45.72177 | 8.79739 | 15267 ft | 311 kts | 151° |
| 2026-05-04 15:40 | 45.70306 | 8.81186 | 14942 ft | 308 kts | 152° |
| 2026-05-04 15:40 | 45.68413 | 8.82627 | 14495 ft | 307 kts | 152° |
| 2026-05-04 15:40 | 45.66520 | 8.84061 | 14067 ft | 307 kts | 152° |
| 2026-05-04 15:41 | 45.64663 | 8.85471 | 13555 ft | 300 kts | 152° |
| 2026-05-04 15:41 | 45.62833 | 8.86841 | 13062 ft | 292 kts | 155° |
| 2026-05-04 15:41 | 45.60942 | 8.87751 | 12758 ft | 279 kts | 165° |
| 2026-05-04 15:41 | 45.59104 | 8.88411 | 12630 ft | 269 kts | 167° |
| 2026-05-04 15:42 | 45.57273 | 8.88972 | 12418 ft | 270 kts | 168° |
| 2026-05-04 15:42 | 45.55434 | 8.89482 | 12188 ft | 269 kts | 169° |
| 2026-05-04 15:42 | 45.53596 | 8.89967 | 11944 ft | 268 kts | 169° |
| 2026-05-04 15:42 | 45.51760 | 8.90446 | 11703 ft | 267 kts | 169° |
| 2026-05-04 15:43 | 45.49935 | 8.90924 | 11484 ft | 266 kts | 169° |
| 2026-05-04 15:43 | 45.48140 | 8.91401 | 11176 ft | 265 kts | 169° |
| 2026-05-04 15:43 | 45.46333 | 8.91887 | 10925 ft | 264 kts | 169° |
| 2026-05-04 15:43 | 45.44535 | 8.92373 | 10713 ft | 263 kts | 169° |
| 2026-05-04 15:44 | 45.42743 | 8.92860 | 10488 ft | 262 kts | 169° |
| 2026-05-04 15:44 | 45.40955 | 8.93346 | 10258 ft | 261 kts | 169° |
| 2026-05-04 15:44 | 45.39170 | 8.93831 | 10036 ft | 260 kts | 169° |
| 2026-05-04 15:44 | 45.37395 | 8.94313 | 9916 ft | 259 kts | 169° |
| 2026-05-04 15:45 | 45.35620 | 8.94794 | 9903 ft | 259 kts | 169° |
| 2026-05-04 15:45 | 45.33841 | 8.95276 | 9856 ft | 265 kts | 169° |
| 2026-05-04 15:45 | 45.31967 | 8.95783 | 9632 ft | 279 kts | 169° |
| 2026-05-04 15:45 | 45.30053 | 8.96299 | 9208 ft | 282 kts | 169° |
| 2026-05-04 15:46 | 45.28098 | 8.96827 | 8443 ft | 292 kts | 169° |
| 2026-05-04 15:46 | 45.26042 | 8.97382 | 7359 ft | 306 kts | 169° |
| 2026-05-04 15:46 | 45.23951 | 8.97946 | 6237 ft | 312 kts | 169° |
| 2026-05-04 15:46 | 45.21845 | 8.98514 | 5471 ft | 303 kts | 169° |
| 2026-05-04 15:47 | 45.19871 | 8.99250 | 5082 ft | 283 kts | 162° |
| 2026-05-04 15:47 | 45.18054 | 9.00046 | 4773 ft | 265 kts | 163° |
| 2026-05-04 15:47 | 45.16297 | 9.00777 | 4070 ft | 264 kts | 164° |
| 2026-05-04 15:47 | 45.14495 | 9.01491 | 3217 ft | 270 kts | 165° |
| 2026-05-04 15:48 | 45.12756 | 9.02132 | 3112 ft | 246 kts | 169° |
| 2026-05-04 15:48 | 45.11128 | 9.02260 | 3089 ft | 224 kts | 183° |
| 2026-05-04 15:48 | 45.08233 | 9.01591 | 3097 ft | 207 kts | 203° |
| 2026-05-04 15:49 | 45.07034 | 9.00536 | 3110 ft | 206 kts | 218° |
| 2026-05-04 15:49 | 45.06076 | 8.99062 | 3103 ft | 204 kts | 240° |
| 2026-05-04 15:49 | 45.05485 | 8.97241 | 3106 ft | 203 kts | 255° |
| 2026-05-04 15:49 | 45.05309 | 8.95280 | 3120 ft | 202 kts | 271° |
| 2026-05-04 15:50 | 45.05524 | 8.93324 | 3031 ft | 199 kts | 287° |
| 2026-05-04 15:50 | 45.06050 | 8.91611 | 2997 ft | 182 kts | 300° |
| 2026-05-04 15:50 | 45.06772 | 8.90202 | 3006 ft | 175 kts | 311° |
| 2026-05-04 15:50 | 45.07653 | 8.89024 | 3015 ft | 174 kts | 322° |
| 2026-05-04 15:51 | 45.08669 | 8.88090 | 3016 ft | 174 kts | 332° |
| 2026-05-04 15:51 | 45.09767 | 8.87442 | 3016 ft | 174 kts | 343° |
| 2026-05-04 15:51 | 45.10919 | 8.87024 | 3025 ft | 174 kts | 348° |
| 2026-05-04 15:51 | 45.12105 | 8.86695 | 3019 ft | 174 kts | 349° |
| 2026-05-04 15:52 | 45.13292 | 8.86379 | 3022 ft | 174 kts | 349° |
| 2026-05-04 15:52 | 45.14513 | 8.86056 | 3036 ft | 182 kts | 349° |
| 2026-05-04 15:52 | 45.15760 | 8.85727 | 3017 ft | 183 kts | 349° |
| 2026-05-04 15:52 | 45.17016 | 8.85396 | 3017 ft | 184 kts | 349° |
| 2026-05-04 15:53 | 45.18271 | 8.85064 | 3023 ft | 184 kts | 349° |
| 2026-05-04 15:53 | 45.19528 | 8.84732 | 3017 ft | 184 kts | 349° |
| 2026-05-04 15:53 | 45.20793 | 8.84444 | 3015 ft | 184 kts | 359° |
| 2026-05-04 15:53 | 45.22069 | 8.84481 | 3025 ft | 184 kts | 359° |
| 2026-05-04 15:54 | 45.23344 | 8.84347 | 3026 ft | 184 kts | 352° |
| 2026-05-04 15:54 | 45.24605 | 8.84060 | 3023 ft | 184 kts | 350° |
| 2026-05-04 15:54 | 45.25864 | 8.83732 | 3024 ft | 184 kts | 348° |
| 2026-05-04 15:54 | 45.27111 | 8.83313 | 3023 ft | 184 kts | 346° |
| 2026-05-04 15:55 | 45.28334 | 8.82885 | 3022 ft | 184 kts | 347° |
| 2026-05-04 15:55 | 45.29586 | 8.82495 | 3023 ft | 184 kts | 348° |
| 2026-05-04 15:55 | 45.30859 | 8.82146 | 3026 ft | 184 kts | 349° |
| 2026-05-04 15:55 | 45.32102 | 8.81828 | 3026 ft | 184 kts | 350° |
| 2026-05-04 15:56 | 45.33364 | 8.81503 | 3022 ft | 184 kts | 349° |
| 2026-05-04 15:56 | 45.34622 | 8.81168 | 3024 ft | 184 kts | 349° |
| 2026-05-04 15:56 | 45.35876 | 8.80824 | 3024 ft | 184 kts | 349° |
| 2026-05-04 15:56 | 45.37132 | 8.80476 | 3023 ft | 184 kts | 349° |
| 2026-05-04 15:57 | 45.38390 | 8.80128 | 3026 ft | 184 kts | 349° |
| 2026-05-04 15:57 | 45.39646 | 8.79783 | 3028 ft | 184 kts | 349° |
| 2026-05-04 15:57 | 45.40902 | 8.79439 | 3023 ft | 184 kts | 349° |
| 2026-05-04 15:57 | 45.42160 | 8.79094 | 3026 ft | 184 kts | 349° |
| 2026-05-04 15:58 | 45.43415 | 8.78750 | 3023 ft | 184 kts | 349° |
| 2026-05-04 15:58 | 45.44672 | 8.78405 | 3026 ft | 184 kts | 349° |
| 2026-05-04 15:58 | 45.45932 | 8.78059 | 3023 ft | 184 kts | 349° |
| 2026-05-04 15:58 | 45.47164 | 8.77719 | 3056 ft | 182 kts | 349° |
| 2026-05-04 15:59 | 45.48406 | 8.77378 | 3065 ft | 183 kts | 349° |
| 2026-05-04 15:59 | 45.49660 | 8.77033 | 3057 ft | 184 kts | 349° |
| 2026-05-04 15:59 | 45.50898 | 8.76693 | 2851 ft | 177 kts | 349° |
| 2026-05-04 15:59 | 45.52053 | 8.76374 | 2623 ft | 160 kts | 349° |
| 2026-05-04 16:00 | 45.53091 | 8.76088 | 2411 ft | 145 kts | 349° |
| 2026-05-04 16:00 | 45.54064 | 8.75820 | 2220 ft | 142 kts | 349° |
| 2026-05-04 16:00 | 45.55030 | 8.75554 | 2040 ft | 141 kts | 349° |
| 2026-05-04 16:00 | 45.55994 | 8.75288 | 1847 ft | 141 kts | 349° |
| 2026-05-04 16:01 | 45.56956 | 8.75023 | 1671 ft | 141 kts | 349° |
| 2026-05-04 16:01 | 45.57910 | 8.74760 | 1468 ft | 140 kts | 349° |
| 2026-05-04 16:01 | 45.58867 | 8.74495 | 1291 ft | 140 kts | 349° |
| 2026-05-04 16:01 | 45.59813 | 8.74237 | 1109 ft | 140 kts | 349° |
| 2026-05-04 16:02 | 45.60765 | 8.73978 | 942 ft | 139 kts | 349° |
| 2026-05-04 16:02 | 45.61707 | 8.73712 | 795 ft | 137 kts | 349° |
| 2026-05-04 16:02 | 45.63258 | 8.73281 | 748 ft | 73 kts | 348° |
| 2026-05-04 16:03 | 45.63636 | 8.73155 | 749 ft | 43 kts | 330° |
| 2026-05-04 16:03 | 45.63788 | 8.72965 | 756 ft | 22 kts | 306° |
| 2026-05-04 16:03 | 45.63857 | 8.72826 | 755 ft | 15 kts | 304° |
| 2026-05-04 16:03 | 45.63920 | 8.72693 | 753 ft | 17 kts | 302° |
| 2026-05-04 16:04 | 45.63952 | 8.72537 | 756 ft | 17 kts | 260° |
| 2026-05-04 16:04 | 45.63914 | 8.72166 | 751 ft | 22 kts | 268° |
| 2026-05-04 16:04 | 45.63902 | 8.71941 | 752 ft | 22 kts | 260° |
| 2026-05-04 16:05 | 45.63804 | 8.71823 | 754 ft | 20 kts | 173° |
| 2026-05-04 16:05 | 45.63666 | 8.71862 | 754 ft | 21 kts | 169° |
| 2026-05-04 16:05 | 45.63371 | 8.71941 | 754 ft | 23 kts | 169° |
| 2026-05-04 16:06 | 45.63207 | 8.71989 | 754 ft | 24 kts | 167° |
| 2026-05-04 16:06 | 45.62754 | 8.72114 | 754 ft | 26 kts | 169° |
| 2026-05-04 16:07 | 45.62513 | 8.72179 | 752 ft | 27 kts | 169° |
| 2026-05-04 16:07 | 45.61950 | 8.72334 | 755 ft | 21 kts | 169° |
| 2026-05-04 16:08 | 45.61859 | 8.72313 | 753 ft | 7 kts | 262° |
| 2026-05-04 16:08 | 45.61800 | 8.72069 | 754 ft | 10 kts | 187° |
| 2026-05-04 16:09 | 45.61582 | 8.72125 | 757 ft | 18 kts | 169° |
| 2026-05-04 16:09 | 45.61373 | 8.72146 | 755 ft | 10 kts | 240° |
| 2026-05-04 16:10 | 45.61359 | 8.72047 | 754 ft | 1 kts | 259° |
| 2026-05-04 16:11 | 45.61359 | 8.72044 | 755 ft | 0 kts | 259° |